createdAt,value
2018-03-16T00:02:22.026Z,10.28
2018-03-16T00:04:50.306Z,10.18
2018-03-16T00:07:19.262Z,10.27
2018-03-16T00:09:47.687Z,10.27
2018-03-16T00:12:15.979Z,10.23
2018-03-16T00:14:44.281Z,10.32
2018-03-16T00:17:12.634Z,10.40
2018-03-16T00:19:40.910Z,10.38
2018-03-16T00:22:12.752Z,10.36
2018-03-16T00:24:41.133Z,10.31
2018-03-16T00:27:09.471Z,10.37
2018-03-16T00:29:37.837Z,10.40
2018-03-16T00:32:06.117Z,10.44
2018-03-16T00:34:34.482Z,10.50
2018-03-16T00:37:02.839Z,10.45
2018-03-16T00:39:31.171Z,10.46
2018-03-16T00:41:59.457Z,10.49
2018-03-16T00:44:27.768Z,10.42
2018-03-16T00:46:56.043Z,10.48
2018-03-16T00:49:24.338Z,10.45
2018-03-16T00:51:52.591Z,10.48
2018-03-16T00:54:20.900Z,10.48
2018-03-16T00:56:49.152Z,10.41
2018-03-16T00:59:17.428Z,10.34
2018-03-16T01:01:45.691Z,10.31
2018-03-16T01:04:13.976Z,10.40
2018-03-16T01:06:42.266Z,10.45
2018-03-16T01:09:10.567Z,10.51
2018-03-16T01:11:38.834Z,10.49
2018-03-16T01:14:07.108Z,10.39
2018-03-16T01:16:35.446Z,10.41
2018-03-16T01:19:03.708Z,10.37
2018-03-16T01:21:32.011Z,10.38
2018-03-16T01:24:00.284Z,10.33
2018-03-16T01:26:28.586Z,10.31
2018-03-16T01:28:56.859Z,10.31
2018-03-16T01:31:25.145Z,10.33
2018-03-16T01:33:53.435Z,10.24
2018-03-16T01:36:21.772Z,10.21
2018-03-16T01:38:50.076Z,10.16
2018-03-16T01:41:18.373Z,10.10
2018-03-16T01:43:46.653Z,10.09
2018-03-16T01:46:14.972Z,10.04
2018-03-16T01:48:43.268Z,10.14
2018-03-16T01:51:11.562Z,10.24
2018-03-16T01:53:39.811Z,10.16
2018-03-16T01:56:08.103Z,10.14
2018-03-16T01:58:36.374Z,10.13
2018-03-16T02:01:04.690Z,10.14
2018-03-16T02:03:32.983Z,10.13
2018-03-16T02:06:01.288Z,10.15
2018-03-16T02:08:29.571Z,10.08
2018-03-16T02:10:57.880Z,10.07
2018-03-16T02:13:26.193Z,10.09
2018-03-16T02:15:54.497Z,10.18
2018-03-16T02:18:22.801Z,10.18
2018-03-16T02:20:51.409Z,10.09
2018-03-16T02:23:19.748Z,10.06
2018-03-16T02:25:48.023Z,10.05
2018-03-16T02:28:16.342Z,10.04
2018-03-16T02:30:44.601Z,10.04
2018-03-16T02:33:12.960Z,10.02
2018-03-16T02:35:41.227Z,10.09
2018-03-16T02:38:09.517Z,9.97
2018-03-16T02:40:37.791Z,9.98
2018-03-16T02:43:06.081Z,10.03
2018-03-16T02:45:34.380Z,10.03
2018-03-16T02:48:02.710Z,10.12
2018-03-16T02:50:30.997Z,10.03
2018-03-16T02:52:59.287Z,10.02
2018-03-16T02:55:28.059Z,10.01
2018-03-16T02:57:56.393Z,10.09
2018-03-16T03:00:24.655Z,10.09
2018-03-16T03:02:52.955Z,10.08
2018-03-16T03:05:21.286Z,10.12
2018-03-16T03:07:49.540Z,10.05
2018-03-16T03:10:17.853Z,10.07
2018-03-16T03:12:46.116Z,10.13
2018-03-16T03:15:14.416Z,10.09
2018-03-16T03:17:42.672Z,10.09
2018-03-16T03:20:11.175Z,10.09
2018-03-16T03:22:39.481Z,10.13
2018-03-16T03:25:07.812Z,10.15
2018-03-16T03:27:36.083Z,10.09
2018-03-16T03:30:05.183Z,9.83
2018-03-16T03:32:33.475Z,9.95
2018-03-16T03:35:01.807Z,10.03
2018-03-16T03:37:30.073Z,10.02
2018-03-16T03:39:58.382Z,10.12
2018-03-16T03:42:26.636Z,10.01
2018-03-16T03:44:54.925Z,9.84
2018-03-16T03:47:23.207Z,9.66
2018-03-16T03:49:51.488Z,9.61
2018-03-16T03:52:19.771Z,9.65
2018-03-16T03:54:48.062Z,9.85
2018-03-16T03:57:16.390Z,9.86
2018-03-16T03:59:44.662Z,9.94
2018-03-16T04:02:12.951Z,9.94
2018-03-16T04:04:41.248Z,9.87
2018-03-16T04:07:09.530Z,9.85
2018-03-16T04:09:37.792Z,9.85
2018-03-16T04:12:06.083Z,9.82
2018-03-16T04:14:34.580Z,9.90
2018-03-16T04:17:02.888Z,9.86
2018-03-16T04:19:31.134Z,9.80
2018-03-16T04:21:59.426Z,9.79
2018-03-16T04:24:27.671Z,9.79
2018-03-16T04:26:55.968Z,9.76
2018-03-16T04:29:24.217Z,9.74
2018-03-16T04:31:52.504Z,9.81
2018-03-16T04:34:20.801Z,9.91
2018-03-16T04:36:49.122Z,9.88
2018-03-16T04:39:17.439Z,9.92
2018-03-16T04:41:45.740Z,9.91
2018-03-16T04:44:14.003Z,9.93
2018-03-16T04:46:42.300Z,9.89
2018-03-16T04:49:10.566Z,9.89
2018-03-16T04:51:38.871Z,9.83
2018-03-16T04:54:07.137Z,9.81
2018-03-16T04:56:35.445Z,9.71
2018-03-16T04:59:03.688Z,9.70
2018-03-16T05:01:31.964Z,9.73
2018-03-16T05:04:00.267Z,9.68
2018-03-16T05:06:28.557Z,9.68
2018-03-16T05:08:56.836Z,9.69
2018-03-16T05:11:25.121Z,9.76
2018-03-16T05:13:53.447Z,9.74
2018-03-16T05:16:21.722Z,9.80
2018-03-16T05:18:50.027Z,9.80
2018-03-16T05:21:18.302Z,9.71
2018-03-16T05:23:46.595Z,9.55
2018-03-16T05:26:14.872Z,9.83
2018-03-16T05:28:43.178Z,9.68
2018-03-16T05:31:11.435Z,9.70
2018-03-16T05:33:39.735Z,9.72
2018-03-16T05:36:08.011Z,9.75
2018-03-16T05:38:36.307Z,9.75
2018-03-16T05:41:04.582Z,9.72
2018-03-16T05:43:32.889Z,9.76
2018-03-16T05:46:01.129Z,9.76
2018-03-16T05:48:29.446Z,9.73
2018-03-16T05:50:57.684Z,9.60
2018-03-16T05:53:25.975Z,9.69
2018-03-16T05:55:54.256Z,9.64
2018-03-16T05:58:22.620Z,9.66
2018-03-16T06:00:51.006Z,9.66
2018-03-16T06:03:19.288Z,9.66
2018-03-16T06:05:47.557Z,9.75
2018-03-16T06:08:15.983Z,9.75
2018-03-16T06:10:44.248Z,9.78
2018-03-16T06:13:12.552Z,9.69
2018-03-16T06:15:40.856Z,9.79
2018-03-16T06:18:09.138Z,9.83
2018-03-16T06:20:37.423Z,9.74
2018-03-16T06:23:05.699Z,9.73
2018-03-16T06:25:34.025Z,9.76
2018-03-16T06:28:02.314Z,9.78
2018-03-16T06:30:30.590Z,9.81
2018-03-16T06:32:58.841Z,9.78
2018-03-16T06:35:27.140Z,9.75
2018-03-16T06:37:55.411Z,9.73
2018-03-16T06:40:23.783Z,9.79
2018-03-16T06:42:52.016Z,9.73
2018-03-16T06:45:20.311Z,9.82
2018-03-16T06:47:48.649Z,9.93
2018-03-16T06:50:16.938Z,9.93
2018-03-16T06:52:45.250Z,9.83
2018-03-16T06:55:13.530Z,9.79
2018-03-16T06:57:41.828Z,9.84
2018-03-16T07:00:10.076Z,9.91
2018-03-16T07:02:38.372Z,9.92
2018-03-16T07:05:06.677Z,9.98
2018-03-16T07:07:34.978Z,9.98
2018-03-16T07:10:03.305Z,9.91
2018-03-16T07:12:31.683Z,10.08
2018-03-16T07:15:11.838Z,10.08
2018-03-16T07:17:40.149Z,10.18
2018-03-16T07:20:08.432Z,10.15
2018-03-16T07:22:36.740Z,10.16
2018-03-16T07:25:05.518Z,10.10
2018-03-16T07:27:33.810Z,10.23
2018-03-16T07:30:02.093Z,10.25
2018-03-16T07:32:30.403Z,10.23
2018-03-16T07:34:58.703Z,10.15
2018-03-16T07:37:26.975Z,10.13
2018-03-16T07:39:55.248Z,10.26
2018-03-16T07:42:23.880Z,10.29
2018-03-16T07:44:52.188Z,10.21
2018-03-16T07:47:20.532Z,10.19
2018-03-16T07:49:48.824Z,10.19
2018-03-16T07:52:17.170Z,10.21
2018-03-16T07:54:45.466Z,10.16
2018-03-16T07:57:13.872Z,10.22
2018-03-16T07:59:42.130Z,10.15
2018-03-16T08:02:10.552Z,10.14
2018-03-16T08:04:38.828Z,10.20
2018-03-16T08:07:07.406Z,10.24
2018-03-16T08:09:35.964Z,10.15
2018-03-16T08:12:04.336Z,10.24
2018-03-16T08:14:32.653Z,10.16
2018-03-16T08:17:00.914Z,10.26
2018-03-16T08:19:29.782Z,10.21
2018-03-16T08:21:58.259Z,10.29
2018-03-16T08:24:26.538Z,10.27
2018-03-16T08:26:54.882Z,10.24
2018-03-16T08:29:23.228Z,10.23
2018-03-16T08:31:51.595Z,10.39
2018-03-16T08:34:20.137Z,10.43
2018-03-16T08:36:48.478Z,10.43
2018-03-16T08:39:16.818Z,10.54
2018-03-16T08:41:45.137Z,10.54
2018-03-16T08:44:14.019Z,10.54
2018-03-16T08:46:43.079Z,10.42
2018-03-16T08:49:11.421Z,10.44
2018-03-16T08:51:39.696Z,10.45
2018-03-16T08:54:08.438Z,10.38
2018-03-16T08:56:36.750Z,10.33
2018-03-16T08:59:05.146Z,10.44
2018-03-16T09:01:33.853Z,10.35
2018-03-16T09:04:02.219Z,10.35
2018-03-16T09:06:30.536Z,10.37
2018-03-16T09:08:59.739Z,10.38
2018-03-16T09:11:28.022Z,10.49
2018-03-16T09:13:56.377Z,10.53
2018-03-16T09:16:25.622Z,10.35
2018-03-16T09:18:53.958Z,10.49
2018-03-16T09:21:22.327Z,10.54
2018-03-16T09:23:50.599Z,10.50
2018-03-16T09:26:18.984Z,10.51
2018-03-16T09:28:47.282Z,10.56
2018-03-16T09:31:16.409Z,10.50
2018-03-16T09:33:44.674Z,10.53
2018-03-16T09:36:13.024Z,10.51
2018-03-16T09:38:41.395Z,10.63
2018-03-16T09:41:09.672Z,10.70
2018-03-16T09:43:37.979Z,10.84
2018-03-16T09:46:07.305Z,10.84
2018-03-16T09:48:35.611Z,10.95
2018-03-16T09:51:04.020Z,10.90
2018-03-16T09:53:32.291Z,11.08
2018-03-16T09:56:00.638Z,11.01
2018-03-16T09:58:28.953Z,11.07
2018-03-16T10:00:57.659Z,11.15
2018-03-16T10:03:27.468Z,11.22
2018-03-16T10:05:55.752Z,11.23
2018-03-16T10:08:24.070Z,11.26
2018-03-16T10:10:52.376Z,11.36
2018-03-16T10:13:20.779Z,11.43
2018-03-16T10:15:49.161Z,11.27
2018-03-16T10:18:17.798Z,11.51
2018-03-16T10:20:46.048Z,11.58
2018-03-16T10:23:14.499Z,11.74
2018-03-16T10:25:42.790Z,11.85
2018-03-16T10:28:11.105Z,11.83
2018-03-16T10:30:39.411Z,11.77
2018-03-16T10:33:08.647Z,11.67
2018-03-16T10:35:36.969Z,11.59
2018-03-16T10:38:05.338Z,11.54
2018-03-16T10:40:33.648Z,11.59
2018-03-16T10:43:01.940Z,11.68
2018-03-16T10:45:30.321Z,11.65
2018-03-16T10:47:58.700Z,11.68
2018-03-16T10:50:26.958Z,11.73
2018-03-16T10:52:55.278Z,11.82
2018-03-16T10:55:23.748Z,11.91
2018-03-16T10:57:52.071Z,11.98
2018-03-16T11:00:25.874Z,11.84
2018-03-16T11:02:54.192Z,12.05
2018-03-16T11:05:28.092Z,12.01
2018-03-16T11:07:58.236Z,12.11
2018-03-16T11:10:26.524Z,12.18
2018-03-16T11:12:55.711Z,12.25
2018-03-16T11:15:24.335Z,12.31
2018-03-16T11:17:52.768Z,12.33
2018-03-16T11:20:22.199Z,12.33
2018-03-16T11:22:50.491Z,12.29
2018-03-16T11:25:18.783Z,12.16
2018-03-16T11:27:47.068Z,12.16
2018-03-16T11:30:15.393Z,12.22
2018-03-16T11:32:43.749Z,12.17
2018-03-16T11:35:12.071Z,12.21
2018-03-16T11:37:40.336Z,12.34
2018-03-16T11:40:08.670Z,12.33
2018-03-16T11:42:37.075Z,12.35
2018-03-16T11:45:05.348Z,12.39
2018-03-16T11:47:33.633Z,12.35
2018-03-16T11:50:01.937Z,12.35
2018-03-16T11:52:30.244Z,12.45
2018-03-16T11:54:58.572Z,12.46
2018-03-16T11:57:26.864Z,12.51
2018-03-16T11:59:55.192Z,12.44
2018-03-16T12:02:23.493Z,12.44
2018-03-16T12:04:52.477Z,12.47
2018-03-16T12:07:20.831Z,12.51
2018-03-16T12:09:49.101Z,12.52
2018-03-16T12:12:17.415Z,12.46
2018-03-16T12:14:45.705Z,12.49
2018-03-16T12:17:14.101Z,12.52
2018-03-16T12:19:42.431Z,12.52
2018-03-16T12:22:11.013Z,12.31
2018-03-16T12:24:39.342Z,12.27
2018-03-16T12:27:07.656Z,12.18
2018-03-16T12:29:35.987Z,12.24
2018-03-16T12:32:04.884Z,11.86
2018-03-16T12:34:33.156Z,12.14
2018-03-16T12:37:01.445Z,12.25
2018-03-16T12:39:30.109Z,12.30
2018-03-16T12:41:58.416Z,12.36
2018-03-16T12:44:26.732Z,12.36
2018-03-16T12:46:55.939Z,12.35
2018-03-16T12:49:24.374Z,12.32
2018-03-16T12:51:52.734Z,12.48
2018-03-16T12:54:21.113Z,12.68
2018-03-16T12:56:49.442Z,12.81
2018-03-16T12:59:17.737Z,12.72
2018-03-16T13:01:46.075Z,12.80
2018-03-16T13:04:14.398Z,12.76
2018-03-16T13:06:42.696Z,12.66
2018-03-16T13:09:11.011Z,12.69
2018-03-16T13:11:39.433Z,12.75
2018-03-16T13:14:07.758Z,12.81
2018-03-16T13:16:36.043Z,12.88
2018-03-16T13:19:05.136Z,12.75
2018-03-16T13:21:33.387Z,12.79
2018-03-16T13:24:01.689Z,12.97
2018-03-16T13:26:30.008Z,13.06
2018-03-16T13:28:58.346Z,13.11
2018-03-16T13:31:26.734Z,13.09
2018-03-16T13:33:55.070Z,13.42
2018-03-16T13:36:23.406Z,13.77
2018-03-16T13:38:51.864Z,14.10
2018-03-16T13:41:20.141Z,14.35
2018-03-16T13:43:48.464Z,14.35
2018-03-16T13:46:16.839Z,14.41
2018-03-16T13:48:45.156Z,14.54
2018-03-16T13:51:13.418Z,14.80
2018-03-16T13:53:42.060Z,15.14
2018-03-16T13:56:10.391Z,15.59
2018-03-16T13:58:39.541Z,15.98
2018-03-16T14:01:07.805Z,16.21
2018-03-16T14:03:36.133Z,16.35
2018-03-16T14:06:04.664Z,15.96
2018-03-16T14:08:33.686Z,15.49
2018-03-16T14:11:02.097Z,15.35
2018-03-16T14:13:31.045Z,15.39
2018-03-16T14:15:59.481Z,15.26
2018-03-16T14:18:31.563Z,14.98
2018-03-16T14:20:59.888Z,15.01
2018-03-16T14:23:28.202Z,15.45
2018-03-16T14:25:56.560Z,15.51
2018-03-16T14:28:25.765Z,15.34
2018-03-16T14:30:54.641Z,15.08
2018-03-16T14:33:22.966Z,15.12
2018-03-16T14:35:51.537Z,15.24
2018-03-16T14:38:19.807Z,15.13
2018-03-16T14:40:48.104Z,14.97
2018-03-16T14:43:16.370Z,14.86
2018-03-16T14:45:44.710Z,14.67
2018-03-16T14:48:12.986Z,14.60
2018-03-16T14:50:41.307Z,14.52
2018-03-16T14:53:09.581Z,14.42
2018-03-16T14:55:38.666Z,14.39
2018-03-16T14:58:06.970Z,14.23
2018-03-16T15:00:35.290Z,14.22
2018-03-16T15:03:03.570Z,14.29
2018-03-16T15:05:32.803Z,14.38
2018-03-16T15:08:01.173Z,14.48
2018-03-16T15:10:30.631Z,14.53
2018-03-16T15:13:02.800Z,14.78
2018-03-16T15:15:31.432Z,15.12
2018-03-16T15:18:00.276Z,15.30
2018-03-16T15:20:28.577Z,15.10
2018-03-16T15:22:56.954Z,15.02
2018-03-16T15:25:25.230Z,14.87
2018-03-16T15:27:53.638Z,14.84
2018-03-16T15:30:22.730Z,14.62
2018-03-16T15:32:51.029Z,14.54
2018-03-16T15:35:19.340Z,14.61
2018-03-16T15:37:47.675Z,14.58
2018-03-16T15:40:16.617Z,14.59
2018-03-16T15:42:44.952Z,14.67
2018-03-16T15:45:13.232Z,14.59
2018-03-16T15:47:41.596Z,14.74
2018-03-16T15:50:09.931Z,14.67
2018-03-16T15:52:38.222Z,14.66
2018-03-16T15:55:07.432Z,14.55
2018-03-16T15:57:36.118Z,14.55
2018-03-16T16:00:05.672Z,14.59
2018-03-16T16:02:34.036Z,14.43
2018-03-16T16:05:02.282Z,14.39
2018-03-16T16:07:31.047Z,14.34
2018-03-16T16:09:59.758Z,14.37
2018-03-16T16:12:28.061Z,14.34
2018-03-16T16:14:56.358Z,14.39
2018-03-16T16:17:24.635Z,14.38
2018-03-16T16:19:52.977Z,14.41
2018-03-16T16:22:21.291Z,14.46
2018-03-16T16:24:49.609Z,14.43
2018-03-16T16:27:17.912Z,14.47
2018-03-16T16:29:47.422Z,14.40
2018-03-16T16:32:18.344Z,14.39
2018-03-16T16:34:46.653Z,14.34
2018-03-16T16:37:14.935Z,14.40
2018-03-16T16:39:43.252Z,14.49
2018-03-16T16:42:11.519Z,14.55
2018-03-16T16:44:39.823Z,14.63
2018-03-16T16:47:08.200Z,14.62
2018-03-16T16:49:36.498Z,14.58
2018-03-16T16:52:04.754Z,14.44
2018-03-16T16:54:33.597Z,14.35
2018-03-16T16:57:01.868Z,14.35
2018-03-16T16:59:30.217Z,14.32
2018-03-16T17:01:58.515Z,14.25
2018-03-16T17:04:26.801Z,14.24
2018-03-16T17:06:58.183Z,14.29
2018-03-16T17:09:33.947Z,14.36
2018-03-16T17:12:03.097Z,14.45
2018-03-16T17:14:32.344Z,14.36
2018-03-16T17:17:06.292Z,14.31
2018-03-16T17:19:35.736Z,14.31
2018-03-16T17:22:05.217Z,14.32
2018-03-16T17:24:34.019Z,14.29
2018-03-16T17:27:02.325Z,14.15
2018-03-16T17:29:30.616Z,14.23
2018-03-16T17:31:58.971Z,14.19
2018-03-16T17:34:27.304Z,14.13
2018-03-16T17:36:55.618Z,14.19
2018-03-16T17:39:23.902Z,14.15
2018-03-16T17:41:52.201Z,14.20
2018-03-16T17:44:20.502Z,14.15
2018-03-16T17:46:48.862Z,14.11
2018-03-16T17:49:17.158Z,14.00
2018-03-16T17:51:45.518Z,13.89
2018-03-16T17:54:13.782Z,13.63
2018-03-16T17:56:42.108Z,13.71
2018-03-16T17:59:10.494Z,13.62
2018-03-16T18:01:38.828Z,13.55
2018-03-16T18:04:07.090Z,13.51
2018-03-16T18:06:35.395Z,13.43
2018-03-16T18:09:03.668Z,13.35
2018-03-16T18:11:31.987Z,13.32
2018-03-16T18:14:00.296Z,13.35
2018-03-16T18:16:28.612Z,13.32
2018-03-16T18:18:56.892Z,13.27
2018-03-16T18:21:25.218Z,13.34
2018-03-16T18:23:53.517Z,13.35
2018-03-16T18:26:22.611Z,13.32
2018-03-16T18:28:50.920Z,13.23
2018-03-16T18:31:19.191Z,13.21
2018-03-16T18:33:47.486Z,13.18
2018-03-16T18:36:15.825Z,13.09
2018-03-16T18:38:44.190Z,12.98
2018-03-16T18:41:12.453Z,12.94
2018-03-16T18:43:40.810Z,12.81
2018-03-16T18:46:09.063Z,12.78
2018-03-16T18:48:37.426Z,12.70
2018-03-16T18:51:05.693Z,12.65
2018-03-16T18:53:34.031Z,12.64
2018-03-16T18:56:02.314Z,12.54
2018-03-16T18:58:30.587Z,12.43
2018-03-16T19:00:58.862Z,12.36
2018-03-16T19:03:27.147Z,12.31
2018-03-16T19:05:56.050Z,12.25
2018-03-16T19:08:24.375Z,12.14
2018-03-16T19:10:52.695Z,12.04
2018-03-16T19:13:20.982Z,12.01
2018-03-16T19:15:49.286Z,11.99
2018-03-16T19:18:18.037Z,11.98
2018-03-16T19:20:46.310Z,11.88
2018-03-16T19:23:14.679Z,11.76
2018-03-16T19:25:43.162Z,11.70
2018-03-16T19:28:12.705Z,11.69
2018-03-16T19:30:41.772Z,11.68
2018-03-16T19:33:10.042Z,11.63
2018-03-16T19:35:38.339Z,11.54
2018-03-16T19:38:07.511Z,11.41
2018-03-16T19:40:35.837Z,11.37
2018-03-16T19:43:05.082Z,11.34
2018-03-16T19:45:33.988Z,11.32
2018-03-16T19:48:02.264Z,11.23
2018-03-16T19:50:30.598Z,11.19
2018-03-16T19:52:58.898Z,11.15
2018-03-16T19:55:27.252Z,11.06
2018-03-16T19:57:55.551Z,11.10
2018-03-16T20:00:23.857Z,11.09
2018-03-16T20:02:52.137Z,10.97
2018-03-16T20:05:20.416Z,10.80
2018-03-16T20:07:48.716Z,10.76
2018-03-16T20:10:17.017Z,10.75
2018-03-16T20:12:46.346Z,10.75
2018-03-16T20:15:14.792Z,10.64
2018-03-16T20:17:43.064Z,10.63
2018-03-16T20:20:11.421Z,10.58
2018-03-16T20:22:39.778Z,10.46
2018-03-16T20:25:08.417Z,10.46
2018-03-16T20:27:36.749Z,10.42
2018-03-16T20:30:05.036Z,10.29
2018-03-16T20:32:33.404Z,10.32
2018-03-16T20:35:03.536Z,10.39
2018-03-16T20:37:32.931Z,10.37
2018-03-16T20:40:01.230Z,10.31
2018-03-16T20:42:29.553Z,10.33
2018-03-16T20:44:57.838Z,10.31
2018-03-16T20:47:26.118Z,10.26
2018-03-16T20:49:54.480Z,10.22
2018-03-16T20:52:22.811Z,10.01
2018-03-16T20:54:51.075Z,9.96
2018-03-16T20:57:19.388Z,9.90
2018-03-16T20:59:47.667Z,9.82
2018-03-16T21:02:15.963Z,9.80
2018-03-16T21:04:44.295Z,9.75
2018-03-16T21:07:12.591Z,9.74
2018-03-16T21:09:40.877Z,9.66
2018-03-16T21:12:09.191Z,9.68
2018-03-16T21:14:37.432Z,9.65
2018-03-16T21:17:05.792Z,9.69
2018-03-16T21:19:34.081Z,9.74
2018-03-16T21:22:02.380Z,9.73
2018-03-16T21:24:30.674Z,9.68
2018-03-16T21:26:58.996Z,9.57
2018-03-16T21:29:27.303Z,9.48
2018-03-16T21:31:55.625Z,9.45
2018-03-16T21:34:23.929Z,9.51
2018-03-16T21:36:52.278Z,9.54
2018-03-16T21:39:20.602Z,9.48
2018-03-16T21:41:49.648Z,9.42
2018-03-16T21:44:23.510Z,9.40
2018-03-16T21:46:53.160Z,9.38
2018-03-16T21:49:21.467Z,9.41
2018-03-16T21:51:49.734Z,9.41
2018-03-16T21:54:18.688Z,9.42
2018-03-16T21:56:46.963Z,9.40
2018-03-16T21:59:15.286Z,9.59
2018-03-16T22:01:43.572Z,9.45
2018-03-16T22:04:16.549Z,9.44
2018-03-16T22:06:47.749Z,9.42
2018-03-16T22:09:16.123Z,9.44
2018-03-16T22:11:44.407Z,9.41
2018-03-16T22:14:12.714Z,9.44
2018-03-16T22:16:41.023Z,9.52
2018-03-16T22:19:10.128Z,9.62
2018-03-16T22:21:38.514Z,9.67
2018-03-16T22:24:06.949Z,9.63
2018-03-16T22:26:35.219Z,9.63
2018-03-16T22:29:03.537Z,9.66
2018-03-16T22:31:31.838Z,9.65
2018-03-16T22:34:00.123Z,9.75
2018-03-16T22:36:28.435Z,9.83
2018-03-16T22:38:56.734Z,9.80
2018-03-16T22:41:25.024Z,9.77
2018-03-16T22:43:53.312Z,9.86
2018-03-16T22:46:21.608Z,9.89
2018-03-16T22:48:49.876Z,9.88
2018-03-16T22:51:19.092Z,9.94
2018-03-16T22:53:47.380Z,9.97
2018-03-16T22:56:15.700Z,9.98
2018-03-16T22:58:44.056Z,9.91
2018-03-16T23:01:12.371Z,9.94
2018-03-16T23:03:40.682Z,9.86
2018-03-16T23:06:09.033Z,9.77
2018-03-16T23:08:37.304Z,9.59
2018-03-16T23:11:05.813Z,9.44
2018-03-16T23:13:34.109Z,9.55
2018-03-16T23:16:06.373Z,9.62
2018-03-16T23:18:35.313Z,9.60
2018-03-16T23:21:03.621Z,9.57
2018-03-16T23:23:32.202Z,9.31
2018-03-16T23:26:00.537Z,9.42
2018-03-16T23:28:28.814Z,9.42
2018-03-16T23:30:57.234Z,9.21
2018-03-16T23:33:25.510Z,9.10
2018-03-16T23:35:53.796Z,9.00
2018-03-16T23:38:22.127Z,9.00
2018-03-16T23:40:50.424Z,9.01
2018-03-16T23:43:18.741Z,9.04
2018-03-16T23:45:47.022Z,9.04
2018-03-16T23:48:15.335Z,9.09
2018-03-16T23:50:43.638Z,9.01
2018-03-16T23:53:11.946Z,9.03
2018-03-16T23:55:40.214Z,9.09
2018-03-16T23:58:08.504Z,9.14
